Polar Endurance — WDG2085 — position and weather

sailwx.info

Track history (hours):
 
Tides and Currents Weather Stations Pressure Air Temp Water Temp Dewpoint Dewpoint Depression Visibility Wind Speed Wind Dir Waves Ship Positions

Polar Endurance

Owner: Dunlap Towing Co., LaConner, WA. More information available from US FCC via Universal Licensing System and Coast Guard Vessel Documentation Center.

Last reported at 2015-Jul-01 18:00 UTC. Time now 2015-Jul-08 00:04 UTC.
Position N 56°54' W 142°36'.

Length 37 m.

Type: Towing. MMSI: 303144000.

Wind from 120 at 16 knots

Waves 0.5 meters (2 feet)

Barometer 1018.5 mb
Air temperature 13.9 ° C
Visibility: greater than 2.2 NM

Date/timePositionNaut miles runAvg speedWind from/ knotsBaromVisibWave heightAir tempDewpointWater temp
2015-Jul-01 18:00N 56°54' W 142°36'   120 / 161018.5 2.2 0.513.9
2015-Jun-28 18:31N 51°24' W 128°01'18 8.9
2015-Jun-28 16:31N 51°08' W 127°48'187 8.8
2015-Jun-27 19:17N 49°20' W 123°50'6 8.3
2015-Jun-27 18:33N 49°16' W 123°42'8 7.9
2015-Jun-27 17:33N 49°11' W 123°33'8 8.1
2015-Jun-27 16:33N 49°06' W 123°24'8 7.8
2015-Jun-27 15:33N 49°01' W 123°15'8 8.3
2015-Jun-27 14:33N 48°55' W 123°05'8 8.2
2015-Jun-27 13:33N 48°50' W 122°56'8 8.0
2015-Jun-27 12:33N 48°45' W 122°46'7 7.2
2015-Jun-27 11:33N 48°38' W 122°44'7 7.3
2015-Jun-27 10:33N 48°31' W 122°44'9 8.7
2015-Jun-27 09:33N 48°22' W 122°45'11 8.3
2015-Jun-27 08:11N 48°11' W 122°46'6 8.5
2015-Jun-27 07:32N 48°07' W 122°39'11 8.3
2015-Jun-27 06:14N 47°57' W 122°33'6 8.5
2015-Jun-27 05:33N 47°53' W 122°28'9 9.1
2015-Jun-27 04:33N 47°44' W 122°26'8 8.0
2015-Jun-27 03:33N 47°36' W 122°22'1 1.0
2015-Jun-27 02:32N 47°35' W 122°21'0 0.1
2015-Jun-27 00:19N 47°35' W 122°21'0 0.0
2015-Jun-26 22:35N 47°35' W 122°21'0 0.3
2015-Jun-26 22:33N 47°35' W 122°21'0 0.0
2015-Jun-26 22:30N 47°35' W 122°21'5 5.7
2015-Jun-26 21:33N 47°39' W 122°27'112.2
2015-Jun-26 21:30N 47°40' W 122°27'1213.0
2015-Jun-26 20:33N 47°52' W 122°23'  
Track history (hours):
 
Tides and Currents Weather Stations Pressure Air Temp Water Temp Dewpoint Dewpoint Depression Visibility Wind Speed Wind Dir Waves Ship Positions

Polar Endurance

Owner: Dunlap Towing Co., LaConner, WA. More information available from US FCC via Universal Licensing System and Coast Guard Vessel Documentation Center.

Last reported at 2015-Jul-01 18:00 UTC. Time now 2015-Jul-08 00:04 UTC.
Position N 56°54' W 142°36'.

Length 37 m.

Type: Towing. MMSI: 303144000.

Wind from 120 at 16 knots

Waves 0.5 meters (2 feet)

Barometer 1018.5 mb
Air temperature 13.9 ° C
Visibility: greater than 2.2 NM

Date/timePositionNaut miles runAvg speedWind from/ knotsBaromVisibWave heightAir tempDewpointWater temp
2015-Jul-01 18:00N 56°54' W 142°36'   120 / 161018.5 2.2 0.513.9
2015-Jun-28 18:31N 51°24' W 128°01'18 8.9
2015-Jun-28 16:31N 51°08' W 127°48'187 8.8
2015-Jun-27 19:17N 49°20' W 123°50'6 8.3
2015-Jun-27 18:33N 49°16' W 123°42'8 7.9
2015-Jun-27 17:33N 49°11' W 123°33'8 8.1
2015-Jun-27 16:33N 49°06' W 123°24'8 7.8
2015-Jun-27 15:33N 49°01' W 123°15'8 8.3
2015-Jun-27 14:33N 48°55' W 123°05'8 8.2
2015-Jun-27 13:33N 48°50' W 122°56'8 8.0
2015-Jun-27 12:33N 48°45' W 122°46'7 7.2
2015-Jun-27 11:33N 48°38' W 122°44'7 7.3
2015-Jun-27 10:33N 48°31' W 122°44'9 8.7
2015-Jun-27 09:33N 48°22' W 122°45'11 8.3
2015-Jun-27 08:11N 48°11' W 122°46'6 8.5
2015-Jun-27 07:32N 48°07' W 122°39'11 8.3
2015-Jun-27 06:14N 47°57' W 122°33'6 8.5
2015-Jun-27 05:33N 47°53' W 122°28'9 9.1
2015-Jun-27 04:33N 47°44' W 122°26'8 8.0
2015-Jun-27 03:33N 47°36' W 122°22'1 1.0
2015-Jun-27 02:32N 47°35' W 122°21'0 0.1
2015-Jun-27 00:19N 47°35' W 122°21'0 0.0
2015-Jun-26 22:35N 47°35' W 122°21'0 0.3
2015-Jun-26 22:33N 47°35' W 122°21'0 0.0
2015-Jun-26 22:30N 47°35' W 122°21'5 5.7
2015-Jun-26 21:33N 47°39' W 122°27'112.2
2015-Jun-26 21:30N 47°40' W 122°27'1213.0
2015-Jun-26 20:33N 47°52' W 122°23'  

Dump ship's entire track history